createdAt,value
2019-02-12T00:02:19.842Z,70.37
2019-02-12T00:04:50.097Z,70.73
2019-02-12T00:07:21.520Z,71.05
2019-02-12T00:09:51.773Z,71.20
2019-02-12T00:12:23.192Z,71.20
2019-02-12T00:14:53.448Z,70.98
2019-02-12T00:17:23.944Z,71.20
2019-02-12T00:19:54.195Z,71.03
2019-02-12T00:22:25.620Z,71.57
2019-02-12T00:24:55.867Z,71.49
2019-02-12T00:27:27.290Z,71.11
2019-02-12T00:29:58.759Z,71.34
2019-02-12T00:32:30.192Z,71.69
2019-02-12T00:35:00.449Z,71.37
2019-02-12T00:37:31.254Z,71.32
2019-02-12T00:40:01.514Z,71.19
2019-02-12T00:42:32.928Z,71.71
2019-02-12T00:45:03.191Z,71.30
2019-02-12T00:47:33.689Z,70.95
2019-02-12T00:50:07.990Z,71.24
2019-02-12T00:52:38.426Z,71.49
2019-02-12T00:55:09.144Z,71.43
2019-02-12T00:57:41.635Z,71.61
2019-02-12T01:00:14.496Z,71.58
2019-02-12T01:02:44.848Z,71.89
2019-02-12T01:05:15.107Z,71.73
2019-02-12T01:07:45.343Z,71.86
2019-02-12T01:10:16.763Z,72.12
2019-02-12T01:12:48.193Z,71.94
2019-02-12T01:15:18.444Z,72.29
2019-02-12T01:17:49.865Z,72.35
2019-02-12T01:20:20.123Z,72.36
2019-02-12T01:22:51.538Z,72.66
2019-02-12T01:25:21.797Z,72.51
2019-02-12T01:27:53.213Z,72.39
2019-02-12T01:30:23.465Z,72.76
2019-02-12T01:32:54.885Z,72.47
2019-02-12T01:35:25.160Z,72.51
2019-02-12T01:37:57.791Z,72.53
2019-02-12T01:40:28.044Z,72.72
2019-02-12T01:42:59.464Z,72.88
2019-02-12T01:45:29.719Z,72.78
2019-02-12T01:48:01.313Z,72.77
2019-02-12T01:50:31.691Z,73.05
2019-02-12T01:53:03.118Z,73.29
2019-02-12T01:55:33.368Z,73.35
2019-02-12T01:58:05.713Z,73.42
2019-02-12T02:00:35.967Z,73.58
2019-02-12T02:03:06.777Z,73.77
2019-02-12T02:05:38.451Z,73.41
2019-02-12T02:08:08.692Z,73.25
2019-02-12T02:10:39.188Z,72.67
2019-02-12T02:13:09.509Z,72.30
2019-02-12T02:15:39.933Z,72.30
2019-02-12T02:18:10.261Z,72.24
2019-02-12T02:20:40.510Z,72.20
2019-02-12T02:23:11.938Z,71.93
2019-02-12T02:25:42.185Z,71.32
2019-02-12T02:28:13.605Z,71.49
2019-02-12T02:30:43.864Z,71.37
2019-02-12T02:33:15.294Z,71.37
2019-02-12T02:35:46.182Z,71.21
2019-02-12T02:38:17.574Z,70.91
2019-02-12T02:40:50.114Z,70.78
2019-02-12T02:43:20.479Z,70.78
2019-02-12T02:45:50.724Z,70.64
2019-02-12T02:48:22.151Z,70.46
2019-02-12T02:50:52.755Z,69.93
2019-02-12T02:53:23.210Z,70.32
2019-02-12T02:55:53.466Z,70.31
2019-02-12T02:58:24.880Z,69.65
2019-02-12T03:00:55.136Z,69.65
2019-02-12T03:03:25.939Z,69.42
2019-02-12T03:05:56.194Z,69.59
2019-02-12T03:08:27.694Z,69.73
2019-02-12T03:10:59.086Z,69.73
2019-02-12T03:13:30.517Z,69.33
2019-02-12T03:16:00.761Z,69.33
2019-02-12T03:18:32.191Z,68.72
2019-02-12T03:21:02.444Z,69.14
2019-02-12T03:23:34.038Z,69.06
2019-02-12T03:26:04.414Z,68.95
2019-02-12T03:28:35.847Z,69.17
2019-02-12T03:31:06.104Z,69.34
2019-02-12T03:33:37.519Z,69.60
2019-02-12T03:36:08.997Z,69.77
2019-02-12T03:38:40.416Z,69.83
2019-02-12T03:41:10.670Z,70.10
2019-02-12T03:43:42.088Z,70.27
2019-02-12T03:46:12.348Z,70.43
2019-02-12T03:48:43.769Z,70.75
2019-02-12T03:51:14.624Z,70.77
2019-02-12T03:53:46.052Z,70.97
2019-02-12T03:56:16.305Z,71.00
2019-02-12T03:58:47.733Z,71.18
2019-02-12T04:01:17.988Z,71.04
2019-02-12T04:03:49.406Z,71.17
2019-02-12T04:06:19.657Z,71.44
2019-02-12T04:08:51.076Z,71.51
2019-02-12T04:11:21.328Z,71.72
2019-02-12T04:13:52.752Z,71.66
2019-02-12T04:16:24.231Z,71.84
2019-02-12T04:18:56.576Z,71.50
2019-02-12T04:21:28.045Z,71.56
2019-02-12T04:23:59.489Z,71.73
2019-02-12T04:26:30.947Z,71.93
2019-02-12T04:29:03.307Z,71.95
2019-02-12T04:31:33.553Z,71.94
2019-02-12T04:34:04.971Z,72.22
2019-02-12T04:36:35.268Z,72.35
2019-02-12T04:39:06.662Z,72.39
2019-02-12T04:41:38.119Z,71.91
2019-02-12T04:44:10.481Z,71.82
2019-02-12T04:46:42.863Z,71.72
2019-02-12T04:49:14.298Z,71.53
2019-02-12T04:51:45.852Z,71.48
2019-02-12T04:54:16.278Z,71.37
2019-02-12T04:56:46.531Z,71.36
2019-02-12T04:59:17.951Z,71.10
2019-02-12T05:01:49.420Z,70.81
2019-02-12T05:04:20.852Z,70.50
2019-02-12T05:06:51.110Z,70.50
2019-02-12T05:09:22.541Z,70.08
2019-02-12T05:11:53.830Z,69.89
2019-02-12T05:14:24.268Z,70.04
2019-02-12T05:16:56.903Z,69.91
2019-02-12T05:19:28.336Z,70.13
2019-02-12T05:21:58.589Z,70.10
2019-02-12T05:24:30.628Z,70.27
2019-02-12T05:27:02.093Z,70.53
2019-02-12T05:29:33.530Z,70.57
2019-02-12T05:32:05.002Z,70.74
2019-02-12T05:34:36.424Z,70.39
2019-02-12T05:37:19.627Z,70.47
2019-02-12T05:39:52.536Z,69.96
2019-02-12T05:42:22.785Z,70.43
2019-02-12T05:44:54.215Z,69.71
2019-02-12T05:47:25.664Z,69.36
2019-02-12T05:49:55.895Z,69.27
2019-02-12T05:52:27.337Z,69.29
2019-02-12T05:54:57.581Z,68.69
2019-02-12T05:57:30.244Z,68.76
2019-02-12T06:00:01.706Z,68.70
2019-02-12T06:02:32.537Z,68.74
2019-02-12T06:05:05.321Z,68.88
2019-02-12T06:07:35.752Z,68.72
2019-02-12T06:10:10.093Z,68.75
2019-02-12T06:12:40.333Z,68.88
2019-02-12T06:15:10.712Z,68.61
2019-02-12T06:17:40.952Z,68.72
2019-02-12T06:20:12.395Z,68.70
2019-02-12T06:22:43.842Z,68.54
2019-02-12T06:25:15.303Z,68.38
2019-02-12T06:27:45.528Z,68.04
2019-02-12T06:30:16.960Z,68.13
2019-02-12T06:32:47.222Z,68.48
2019-02-12T06:35:18.640Z,68.37
2019-02-12T06:37:50.095Z,68.13
2019-02-12T06:40:21.547Z,68.13
2019-02-12T06:42:53.008Z,67.98
2019-02-12T06:45:24.454Z,67.98
2019-02-12T06:47:56.839Z,68.09
2019-02-12T06:50:29.179Z,67.08
2019-02-12T06:53:00.651Z,67.08
2019-02-12T06:55:48.670Z,66.86
2019-02-12T06:58:18.910Z,66.81
2019-02-12T07:00:50.356Z,66.81
2019-02-12T07:03:22.871Z,66.83
2019-02-12T07:06:10.752Z,66.41
2019-02-12T07:08:52.889Z,66.41
2019-02-12T07:11:38.366Z,66.56
2019-02-12T07:14:23.560Z,65.77
2019-02-12T07:17:28.649Z,65.77
2019-02-12T07:20:20.160Z,65.66
2019-02-12T07:22:56.335Z,65.21
2019-02-12T07:25:48.703Z,63.77
2019-02-12T07:28:44.640Z,62.08
2019-02-12T07:31:24.142Z,61.19
2019-02-12T07:34:17.007Z,60.20
2019-02-12T07:37:11.356Z,58.92
2019-02-12T07:39:59.160Z,55.69
2019-02-12T07:42:44.765Z,52.34
2019-02-12T07:45:33.050Z,49.45
2019-02-12T07:48:12.132Z,46.47
2019-02-12T07:51:18.943Z,46.47
2019-02-12T07:54:08.604Z,44.78
2019-02-12T07:57:01.471Z,45.56
2019-02-12T07:59:34.976Z,44.04
2019-02-12T08:02:34.182Z,44.92
2019-02-12T08:05:24.978Z,45.66
2019-02-12T08:08:19.655Z,47.24
2019-02-12T08:11:02.046Z,53.88
2019-02-12T08:13:50.447Z,55.73
2019-02-12T08:16:38.845Z,57.19
2019-02-12T08:19:27.152Z,57.79
2019-02-12T08:22:33.610Z,59.48
2019-02-12T08:25:27.990Z,59.03
2019-02-12T08:28:04.049Z,58.00
2019-02-12T08:30:49.545Z,58.72
2019-02-12T08:33:28.536Z,58.41
2019-02-12T08:36:07.767Z,53.14
2019-02-12T08:38:47.158Z,52.99
2019-02-12T08:41:53.806Z,51.24
2019-02-12T08:44:42.535Z,50.77
2019-02-12T08:47:18.726Z,48.30
2019-02-12T08:50:06.865Z,48.05
2019-02-12T08:52:43.055Z,49.76
2019-02-12T08:55:31.624Z,48.03
2019-02-12T08:58:10.872Z,48.32
2019-02-12T09:00:48.254Z,46.34
2019-02-12T09:03:39.084Z,50.41
2019-02-12T09:06:31.749Z,52.76
2019-02-12T09:09:14.253Z,53.60
2019-02-12T09:12:05.772Z,55.35
2019-02-12T09:14:54.205Z,55.19
2019-02-12T09:17:42.508Z,54.72
2019-02-12T09:20:24.658Z,55.20
2019-02-12T09:23:29.565Z,55.03
2019-02-12T09:26:08.989Z,54.77
2019-02-12T09:29:08.251Z,55.31
2019-02-12T09:31:44.556Z,54.96
2019-02-12T09:34:30.055Z,56.23
2019-02-12T09:37:39.759Z,56.38
2019-02-12T09:40:20.222Z,56.75
2019-02-12T09:43:15.473Z,57.02
2019-02-12T09:45:58.057Z,56.83
2019-02-12T09:48:31.551Z,57.00
2019-02-12T09:51:18.928Z,56.93
2019-02-12T09:54:09.152Z,56.50
2019-02-12T09:56:48.495Z,56.09
2019-02-12T09:59:38.818Z,55.22
2019-02-12T10:02:26.914Z,55.58
2019-02-12T10:05:13.824Z,55.21
2019-02-12T10:08:08.950Z,54.39
2019-02-12T10:10:51.492Z,53.54
2019-02-12T10:13:42.905Z,51.95
2019-02-12T10:16:25.113Z,52.37
2019-02-12T10:19:19.653Z,52.05
2019-02-12T10:21:58.893Z,52.69
2019-02-12T10:24:45.629Z,53.37
2019-02-12T10:27:35.509Z,54.04
2019-02-12T10:30:25.454Z,53.61
2019-02-12T10:32:58.079Z,53.71
2019-02-12T10:35:29.864Z,54.34
2019-02-12T10:38:00.117Z,53.72
2019-02-12T10:40:30.658Z,53.00
2019-02-12T10:43:00.927Z,53.02
2019-02-12T10:45:31.360Z,52.84
2019-02-12T10:48:01.756Z,53.57
2019-02-12T10:50:34.119Z,52.39
2019-02-12T10:53:04.631Z,52.71
2019-02-12T10:55:36.399Z,53.16
2019-02-12T10:58:09.642Z,53.06
2019-02-12T11:00:40.143Z,53.36
2019-02-12T11:03:10.621Z,52.56
2019-02-12T11:05:42.059Z,52.26
2019-02-12T11:08:13.519Z,52.20
2019-02-12T11:10:45.212Z,51.56
2019-02-12T11:13:17.957Z,51.04
2019-02-12T11:15:49.472Z,50.68
2019-02-12T11:18:19.940Z,50.07
2019-02-12T11:20:51.377Z,49.74
2019-02-12T11:23:24.062Z,49.14
2019-02-12T11:25:55.502Z,49.87
2019-02-12T11:28:25.752Z,50.83
2019-02-12T11:30:57.357Z,50.74
2019-02-12T11:33:27.711Z,51.05
2019-02-12T11:35:59.161Z,50.32
2019-02-12T11:38:29.701Z,50.15
2019-02-12T11:41:01.154Z,50.57
2019-02-12T11:43:32.623Z,50.34
2019-02-12T11:46:04.038Z,49.78
2019-02-12T11:48:34.275Z,50.81
2019-02-12T11:51:06.325Z,51.23
2019-02-12T11:53:36.567Z,51.12
2019-02-12T11:56:07.992Z,50.64
2019-02-12T11:58:39.476Z,51.36
2019-02-12T12:01:13.793Z,51.88
2019-02-12T12:03:44.202Z,51.98
2019-02-12T12:06:17.744Z,52.35
2019-02-12T12:08:48.036Z,52.47
2019-02-12T12:11:19.481Z,52.33
2019-02-12T12:13:50.011Z,52.69
2019-02-12T12:16:23.365Z,52.77
2019-02-12T12:18:53.556Z,53.28
2019-02-12T12:21:24.981Z,53.16
2019-02-12T12:23:57.977Z,52.76
2019-02-12T12:26:29.423Z,52.71
2019-02-12T12:29:00.884Z,51.90
2019-02-12T12:31:32.327Z,51.40
2019-02-12T12:34:03.770Z,51.05
2019-02-12T12:36:34.009Z,51.48
2019-02-12T12:39:05.924Z,51.84
2019-02-12T12:41:38.747Z,51.87
2019-02-12T12:44:10.195Z,50.61
2019-02-12T12:46:40.421Z,50.12
2019-02-12T12:49:11.878Z,51.28
2019-02-12T12:51:43.338Z,50.37
2019-02-12T12:54:14.799Z,51.52
2019-02-12T12:56:46.239Z,51.07
2019-02-12T12:59:17.697Z,50.84
2019-02-12T13:01:49.154Z,50.60
2019-02-12T13:04:20.586Z,50.76
2019-02-12T13:06:52.045Z,50.61
2019-02-12T13:09:23.476Z,50.86
2019-02-12T13:11:53.752Z,50.77
2019-02-12T13:14:25.236Z,50.92
2019-02-12T13:16:55.784Z,50.68
2019-02-12T13:19:26.021Z,51.54
2019-02-12T13:21:56.629Z,51.47
2019-02-12T13:24:26.967Z,52.10
2019-02-12T13:26:58.451Z,52.14
2019-02-12T13:29:33.281Z,52.49
2019-02-12T13:32:07.187Z,52.73
2019-02-12T13:34:39.545Z,53.05
2019-02-12T13:37:10.994Z,53.35
2019-02-12T13:39:42.430Z,52.53
2019-02-12T13:42:13.910Z,52.38
2019-02-12T13:44:47.383Z,51.83
2019-02-12T13:47:21.398Z,51.79
2019-02-12T13:49:51.919Z,51.90
2019-02-12T13:52:22.172Z,51.80
2019-02-12T13:54:53.629Z,51.62
2019-02-12T13:57:25.080Z,51.04
2019-02-12T13:59:57.428Z,51.86
2019-02-12T14:02:29.819Z,52.17
2019-02-12T14:05:01.261Z,52.79
2019-02-12T14:07:32.717Z,52.66
2019-02-12T14:10:06.384Z,52.21
2019-02-12T14:12:36.854Z,52.61
2019-02-12T14:15:11.915Z,51.90
2019-02-12T14:17:45.271Z,51.78
2019-02-12T14:20:16.885Z,51.35
2019-02-12T14:22:47.248Z,51.65
2019-02-12T14:25:25.208Z,52.09
2019-02-12T14:27:50.658Z,52.60
2019-02-12T14:30:22.356Z,52.49
2019-02-12T14:32:53.590Z,52.86
2019-02-12T14:35:23.825Z,52.60
2019-02-12T14:37:54.081Z,52.34
2019-02-12T14:40:24.325Z,52.04
2019-02-12T14:42:54.588Z,52.58
2019-02-12T14:45:24.835Z,52.27
2019-02-12T14:47:55.083Z,52.90
2019-02-12T14:50:25.350Z,52.84
2019-02-12T14:52:55.587Z,53.20
2019-02-12T14:55:33.337Z,53.02
2019-02-12T14:57:57.824Z,53.11
2019-02-12T15:00:28.087Z,53.48
2019-02-12T15:02:58.339Z,53.92
2019-02-12T15:05:28.717Z,53.80
2019-02-12T15:08:00.186Z,53.59
2019-02-12T15:10:30.431Z,53.92
2019-02-12T15:13:00.697Z,54.22
2019-02-12T15:15:30.952Z,54.40
2019-02-12T15:18:01.210Z,54.27
2019-02-12T15:20:31.476Z,54.39
2019-02-12T15:23:01.748Z,54.26
2019-02-12T15:25:32.084Z,54.44
2019-02-12T15:28:02.349Z,54.71
2019-02-12T15:30:32.613Z,54.72
2019-02-12T15:33:03.436Z,54.46
2019-02-12T15:35:33.689Z,54.90
2019-02-12T15:38:04.008Z,55.07
2019-02-12T15:40:34.275Z,55.33
2019-02-12T15:43:05.750Z,55.66
2019-02-12T15:45:36.006Z,55.97
2019-02-12T15:48:07.416Z,56.29
2019-02-12T15:50:37.690Z,56.46
2019-02-12T15:53:07.936Z,57.01
2019-02-12T15:55:42.350Z,56.58
2019-02-12T15:58:10.157Z,57.42
2019-02-12T16:00:41.523Z,57.17
2019-02-12T16:03:12.352Z,57.91
2019-02-12T16:05:42.644Z,58.17
2019-02-12T16:08:12.895Z,58.23
2019-02-12T16:10:43.180Z,58.71
2019-02-12T16:13:13.729Z,58.48
2019-02-12T16:15:47.129Z,58.78
2019-02-12T16:18:17.439Z,58.83
2019-02-12T16:20:47.692Z,59.19
2019-02-12T16:23:17.998Z,59.11
2019-02-12T16:25:48.262Z,59.14
2019-02-12T16:28:18.531Z,59.06
2019-02-12T16:30:48.805Z,59.54
2019-02-12T16:33:19.084Z,59.45
2019-02-12T16:35:49.356Z,59.36
2019-02-12T16:38:19.631Z,59.29
2019-02-12T16:40:50.811Z,59.00
2019-02-12T16:43:21.103Z,59.83
2019-02-12T16:46:00.546Z,59.82
2019-02-12T16:48:30.820Z,59.93
2019-02-12T16:51:01.096Z,60.07
2019-02-12T16:53:31.361Z,60.59
2019-02-12T16:56:08.134Z,60.59
2019-02-12T16:58:33.921Z,60.52
2019-02-12T17:01:04.587Z,59.97
2019-02-12T17:03:34.972Z,60.15
2019-02-12T17:06:05.737Z,60.28
2019-02-12T17:08:36.057Z,60.27
2019-02-12T17:11:06.361Z,60.07
2019-02-12T17:13:36.621Z,60.07
2019-02-12T17:16:06.897Z,60.40
2019-02-12T17:18:37.330Z,60.16
2019-02-12T17:21:07.593Z,60.38
2019-02-12T17:23:39.384Z,60.84
2019-02-12T17:26:16.252Z,60.69
2019-02-12T17:28:44.439Z,60.38
2019-02-12T17:31:18.007Z,60.84
2019-02-12T17:33:49.730Z,61.09
2019-02-12T17:36:20.321Z,61.17
2019-02-12T17:38:50.705Z,61.16
2019-02-12T17:41:21.989Z,61.89
2019-02-12T17:43:52.269Z,61.89
2019-02-12T17:46:22.568Z,62.30
2019-02-12T17:48:54.517Z,63.31
2019-02-12T17:51:25.056Z,63.80
2019-02-12T17:53:56.514Z,63.80
2019-02-12T17:56:26.879Z,64.32
2019-02-12T17:58:57.937Z,64.53
2019-02-12T18:01:28.591Z,64.88
2019-02-12T18:03:58.860Z,64.89
2019-02-12T18:06:29.330Z,65.31
2019-02-12T18:08:59.601Z,64.96
2019-02-12T18:11:30.073Z,65.23
2019-02-12T18:14:00.360Z,65.46
2019-02-12T18:16:31.741Z,65.59
2019-02-12T18:19:02.069Z,65.71
2019-02-12T18:21:32.350Z,65.78
2019-02-12T18:24:02.607Z,66.04
2019-02-12T18:26:33.682Z,66.12
2019-02-12T18:29:04.055Z,66.25
2019-02-12T18:31:35.522Z,66.07
2019-02-12T18:34:06.040Z,66.07
2019-02-12T18:36:36.491Z,66.16
2019-02-12T18:39:06.747Z,66.13
2019-02-12T18:41:38.892Z,66.25
2019-02-12T18:44:09.238Z,66.31
2019-02-12T18:46:39.704Z,66.00
2019-02-12T18:49:10.066Z,66.30
2019-02-12T18:51:40.366Z,65.97
2019-02-12T18:54:11.828Z,66.29
2019-02-12T18:56:42.403Z,66.46
2019-02-12T18:59:13.523Z,66.28
2019-02-12T19:01:43.793Z,66.25
2019-02-12T19:04:14.138Z,66.01
2019-02-12T19:06:44.605Z,66.06
2019-02-12T19:09:17.062Z,65.98
2019-02-12T19:11:54.185Z,66.17
2019-02-12T19:14:21.063Z,66.35
2019-02-12T19:16:51.341Z,66.17
2019-02-12T19:19:21.585Z,66.64
2019-02-12T19:21:52.164Z,66.47
2019-02-12T19:24:22.609Z,66.36
2019-02-12T19:26:52.859Z,66.44
2019-02-12T19:29:23.361Z,66.49
2019-02-12T19:31:59.201Z,66.47
2019-02-12T19:34:25.807Z,66.75
2019-02-12T19:36:56.079Z,66.77
2019-02-12T19:39:26.407Z,66.93
2019-02-12T19:41:56.927Z,67.14
2019-02-12T19:44:27.394Z,67.13
2019-02-12T19:46:57.865Z,66.90
2019-02-12T19:49:29.262Z,67.04
2019-02-12T19:51:59.542Z,67.09
2019-02-12T19:54:30.837Z,67.08
2019-02-12T19:57:03.749Z,67.09
2019-02-12T19:59:34.910Z,67.01
2019-02-12T20:02:05.191Z,67.26
2019-02-12T20:04:36.596Z,67.27
2019-02-12T20:07:06.853Z,67.30
2019-02-12T20:09:37.225Z,67.50
2019-02-12T20:12:18.754Z,67.67
2019-02-12T20:14:49.032Z,67.53
2019-02-12T20:17:20.478Z,67.90
2019-02-12T20:19:53.608Z,67.80
2019-02-12T20:22:23.885Z,68.08
2019-02-12T20:24:54.231Z,67.97
2019-02-12T20:27:24.506Z,68.28
2019-02-12T20:29:56.836Z,68.14
2019-02-12T20:32:28.558Z,68.37
2019-02-12T20:35:23.613Z,68.52
2019-02-12T20:37:57.197Z,68.59
2019-02-12T20:40:35.657Z,68.66
2019-02-12T20:43:11.437Z,68.85
2019-02-12T20:45:51.394Z,68.72
2019-02-12T20:48:30.971Z,69.16
2019-02-12T20:51:12.469Z,69.24
2019-02-12T20:53:59.519Z,69.37
2019-02-12T20:56:29.819Z,69.52
2019-02-12T20:59:00.629Z,69.49
2019-02-12T21:01:31.764Z,69.57
2019-02-12T21:04:02.211Z,69.61
2019-02-12T21:06:32.539Z,69.51
2019-02-12T21:09:03.085Z,69.57
2019-02-12T21:11:35.604Z,69.62
2019-02-12T21:14:10.015Z,69.93
2019-02-12T21:16:43.110Z,70.08
2019-02-12T21:19:14.896Z,70.65
2019-02-12T21:21:47.039Z,70.48
2019-02-12T21:24:17.340Z,70.59
2019-02-12T21:26:49.215Z,70.79
2019-02-12T21:29:20.829Z,70.52
2019-02-12T21:31:52.150Z,70.47
2019-02-12T21:34:22.463Z,70.25
2019-02-12T21:36:54.008Z,70.22
2019-02-12T21:39:27.932Z,70.28
2019-02-12T21:41:59.536Z,70.24
2019-02-12T21:44:31.588Z,70.48
2019-02-12T21:47:02.561Z,70.38
2019-02-12T21:49:33.232Z,70.26
2019-02-12T21:52:03.489Z,70.20
2019-02-12T21:54:33.742Z,70.00
2019-02-12T21:57:04.142Z,70.17
2019-02-12T21:59:34.399Z,70.24
2019-02-12T22:02:05.553Z,70.21
2019-02-12T22:04:35.879Z,70.13
2019-02-12T22:07:07.233Z,70.13
2019-02-12T22:09:40.670Z,70.18
2019-02-12T22:12:13.198Z,70.21
2019-02-12T22:14:57.574Z,70.56
2019-02-12T22:17:32.206Z,71.00
2019-02-12T22:20:10.605Z,70.96
2019-02-12T22:22:42.985Z,71.28
2019-02-12T22:25:14.448Z,71.26
2019-02-12T22:27:48.596Z,70.97
2019-02-12T22:30:25.166Z,70.84
2019-02-12T22:33:01.504Z,70.60
2019-02-12T22:35:40.588Z,70.34
2019-02-12T22:38:12.237Z,70.36
2019-02-12T22:40:44.074Z,70.31
2019-02-12T22:43:15.506Z,70.40
2019-02-12T22:45:47.548Z,70.05
2019-02-12T22:48:17.877Z,70.15
2019-02-12T22:50:48.710Z,70.10
2019-02-12T22:53:19.336Z,69.84
2019-02-12T22:55:50.490Z,69.77
2019-02-12T22:58:20.726Z,69.44
2019-02-12T23:00:55.479Z,69.05
2019-02-12T23:03:27.318Z,69.03
2019-02-12T23:05:57.581Z,68.91
2019-02-12T23:08:27.818Z,68.54
2019-02-12T23:10:58.061Z,68.43
2019-02-12T23:13:28.305Z,68.38
2019-02-12T23:15:58.551Z,68.06
2019-02-12T23:18:28.933Z,67.87
2019-02-12T23:21:00.240Z,68.28
2019-02-12T23:23:30.654Z,68.28
2019-02-12T23:26:00.911Z,68.30
2019-02-12T23:28:31.843Z,68.49
2019-02-12T23:31:02.087Z,68.24
2019-02-12T23:33:32.322Z,68.29
2019-02-12T23:36:03.202Z,69.02
2019-02-12T23:38:33.445Z,69.02
2019-02-12T23:41:03.710Z,68.80
2019-02-12T23:43:34.070Z,68.64
2019-02-12T23:46:05.560Z,68.53
2019-02-12T23:48:35.796Z,68.58
2019-02-12T23:51:06.194Z,68.42
2019-02-12T23:53:36.437Z,68.51
2019-02-12T23:56:06.701Z,68.29
2019-02-12T23:58:37.067Z,67.92
